Time;durP1;ratioP1;P1;durP2;ratioP2;P2;SDS_P1;SDS_P2;PMS_P1;PMS_P2;Temp;Humidity;BMP_temperature;BMP_pressure;BME280_temperature;BME280_humidity;BME280_pressure;Samples;Min_cycle;Max_cycle;Signal;HPM_P1;HPM_P2
2022/10/05 00:01:34;;;;;;;0.10;0.10;;;;;;;7.56;79.56;99069.91;5024061;28;20104;-64
2022/10/05 00:04:10;;;;;;;0.10;0.10;;;;;;;7.55;79.81;99070.97;5024384;28;20432;-65
2022/10/05 00:06:36;;;;;;;0.10;0.10;;;;;;;7.49;79.90;99074.81;5022944;28;20052;-65
2022/10/05 00:09:12;;;;;;;0.10;0.10;;;;;;;7.44;80.05;99069.38;5021338;28;20049;-65
2022/10/05 00:11:37;;;;;;;0.20;0.20;;;;;;;7.46;80.38;99075.34;5022355;28;20064;-65
2022/10/05 00:14:13;;;;;;;0.10;0.10;;;;;;;7.46;80.48;99075.34;5023407;28;20450;-64
2022/10/05 00:16:40;;;;;;;0.10;0.10;;;;;;;7.46;80.39;99069.91;5026746;28;20141;-65
2022/10/05 00:19:17;;;;;;;0.10;0.10;;;;;;;7.46;80.40;99061.75;5024084;28;20068;-65
2022/10/05 00:21:43;;;;;;;0.10;0.10;;;;;;;7.48;80.36;99062.28;5029324;28;20044;-66
2022/10/05 00:24:09;;;;;;;0.13;0.13;;;;;;;7.49;80.29;99072.91;5040850;28;20528;-65
2022/10/05 00:26:35;;;;;;;0.10;0.10;;;;;;;7.47;80.42;99071.53;5012618;28;20241;-66
2022/10/05 00:29:15;;;;;;;0.10;0.10;;;;;;;7.42;80.33;99066.91;5023551;28;20555;-64
2022/10/05 00:31:43;;;;;;;0.10;0.10;;;;;;;7.35;80.53;99058.22;5022418;28;20137;-64
2022/10/05 00:34:08;;;;;;;0.10;0.10;;;;;;;7.38;80.68;99068.56;5023680;28;20147;-66
2022/10/05 00:36:36;;;;;;;0.10;0.10;;;;;;;7.35;80.97;99059.03;5021408;28;20140;-65
2022/10/05 00:39:02;;;;;;;0.10;0.10;;;;;;;7.38;80.61;99063.91;5022902;28;20120;-64
2022/10/05 00:41:39;;;;;;;0.10;0.10;;;;;;;7.32;80.77;99067.72;5023340;28;20123;-65
2022/10/05 00:44:26;;;;;;;0.10;0.10;;;;;;;7.32;80.90;99070.44;5028121;28;20382;-65
2022/10/05 00:47:01;;;;;;;0.00;0.00;;;;;;;7.32;80.92;99064.19;5006521;28;20045;-66
2022/10/05 00:49:47;;;;;;;0.10;0.10;;;;;;;7.31;81.07;99076.16;5025235;28;20063;-65
2022/10/05 00:52:22;;;;;;;0.20;0.20;;;;;;;7.32;81.08;99072.34;5005451;28;20042;-66
2022/10/05 00:54:57;;;;;;;0.20;0.10;;;;;;;7.35;81.36;99069.09;5026924;28;20060;-65
2022/10/05 00:57:37;;;;;;;0.10;0.10;;;;;;;7.40;81.45;99065.53;5028131;28;20049;-65
2022/10/05 01:00:08;;;;;;;0.10;0.10;;;;;;;7.44;81.14;99072.91;5025343;28;20049;-66
2022/10/05 01:02:48;;;;;;;0.00;0.00;;;;;;;7.41;81.01;99078.06;5026173;28;20072;-65
2022/10/05 01:05:23;;;;;;;0.10;0.10;;;;;;;7.36;81.26;99071.53;5028189;28;20057;-65
2022/10/05 01:07:55;;;;;;;0.10;0.10;;;;;;;7.39;81.19;99067.47;5024801;28;20627;-65
2022/10/05 01:10:31;;;;;;;0.10;0.10;;;;;;;7.45;81.12;99068.28;5025457;28;20045;-64
2022/10/05 01:13:05;;;;;;;0.10;0.10;;;;;;;7.48;81.01;99073.97;5028624;28;20054;-65
2022/10/05 01:15:38;;;;;;;0.10;0.10;;;;;;;7.52;80.97;99068.81;5027258;28;20467;-64
2022/10/05 01:18:15;;;;;;;0.10;0.10;;;;;;;7.46;81.18;99081.59;5027766;28;20054;-66
2022/10/05 01:20:51;;;;;;;0.10;0.10;;;;;;;7.47;81.68;99080.50;5026807;28;20045;-66
2022/10/05 01:23:56;;;;;;;0.10;0.10;;;;;;;7.47;81.35;99080.50;5026341;28;20080;-65
2022/10/05 01:26:50;;;;;;;0.10;0.10;;;;;;;7.45;81.61;99079.16;5004027;28;20053;-64
2022/10/05 01:29:22;;;;;;;;;;;;;;;7.47;81.86;99083.22;5028203;28;20049;-65
2022/10/05 01:31:55;;;;;;;0.10;0.10;;;;;;;7.43;81.50;99086.78;5027783;28;20024;-65
2022/10/05 01:34:30;;;;;;;0.10;0.10;;;;;;;7.36;81.54;99082.41;5024842;28;20042;-65
2022/10/05 01:37:01;;;;;;;0.10;0.10;;;;;;;7.30;81.84;99078.06;5025324;28;20053;-64
2022/10/05 01:39:37;;;;;;;0.10;0.10;;;;;;;7.30;82.19;99079.97;5022899;28;20053;-64
2022/10/05 01:42:13;;;;;;;0.00;0.00;;;;;;;7.27;82.14;99072.34;5025094;28;20053;-64
2022/10/05 01:44:48;;;;;;;0.20;0.10;;;;;;;7.26;82.38;99081.59;5027312;28;20049;-65
2022/10/05 01:47:20;;;;;;;0.10;0.10;;;;;;;7.23;82.49;99072.06;5026722;28;20067;-64
2022/10/05 01:49:54;;;;;;;0.10;0.10;;;;;;;7.27;82.81;99080.50;5026310;28;20428;-64
2022/10/05 01:52:32;;;;;;;0.10;0.10;;;;;;;7.32;82.67;99073.16;5023952;28;20045;-63
2022/10/05 01:55:03;;;;;;;;;;;;;;;7.34;82.74;99078.34;5027127;28;20049;-64
2022/10/05 01:57:41;;;;;;;0.10;0.10;;;;;;;7.34;82.98;99075.63;5025581;28;20357;-64
2022/10/05 02:00:11;;;;;;;0.20;0.20;;;;;;;7.28;82.83;99072.09;5025922;28;20057;-64
2022/10/05 02:02:46;;;;;;;0.00;0.00;;;;;;;7.27;83.01;99075.91;5025950;28;20049;-65
2022/10/05 02:05:18;;;;;;;0.00;0.00;;;;;;;7.25;83.33;99072.59;5022890;28;20294;-64
2022/10/05 02:07:51;;;;;;;0.10;0.10;;;;;;;7.28;83.49;99084.84;5007103;28;20147;-65
2022/10/05 02:10:23;;;;;;;0.10;0.10;;;;;;;7.34;83.86;99091.94;5023614;28;20544;-64
2022/10/05 02:12:57;;;;;;;0.10;0.10;;;;;;;7.37;83.73;99081.31;5022905;28;20049;-65
2022/10/05 02:15:32;;;;;;;0.10;0.10;;;;;;;7.36;83.64;99087.06;5005485;28;20084;-65
2022/10/05 02:18:04;;;;;;;0.10;0.10;;;;;;;7.33;83.88;99082.13;5024754;28;20304;-63
2022/10/05 02:20:33;;;;;;;0.10;0.10;;;;;;;7.30;84.34;99083.50;5041842;28;20132;-64
2022/10/05 02:23:03;;;;;;;0.10;0.10;;;;;;;7.30;84.52;99086.22;5026061;28;20531;-66
2022/10/05 02:25:34;;;;;;;0.10;0.10;;;;;;;7.27;84.35;99083.22;5043081;28;20157;-64
2022/10/05 02:28:05;;;;;;;0.10;0.10;;;;;;;7.23;84.86;99088.38;5044962;28;20049;-65
2022/10/05 02:30:40;;;;;;;0.10;0.10;;;;;;;7.21;84.73;99082.41;5042232;28;20045;-64
2022/10/05 02:33:09;;;;;;;0.10;0.10;;;;;;;7.19;85.42;99084.56;5043794;28;20580;-64
2022/10/05 02:35:35;;;;;;;0.10;0.10;;;;;;;7.17;85.63;99079.38;5041417;28;20041;-64
2022/10/05 02:38:16;;;;;;;0.10;0.10;;;;;;;7.13;86.56;99080.22;5043052;28;20075;-64
2022/10/05 02:40:52;;;;;;;0.10;0.10;;;;;;;7.11;87.40;99082.41;5042888;28;20580;-64
2022/10/05 02:43:29;;;;;;;0.10;0.10;;;;;;;7.08;88.25;99087.25;5043735;28;20049;-65
2022/10/05 02:46:03;;;;;;;0.10;0.10;;;;;;;6.99;88.35;99085.34;5026064;28;20325;-65
2022/10/05 02:48:39;;;;;;;0.10;0.10;;;;;;;6.90;89.31;99085.88;5044277;28;20056;-66
2022/10/05 02:51:17;;;;;;;0.10;0.10;;;;;;;6.84;89.97;99083.41;5039850;28;20125;-66
2022/10/05 02:53:59;;;;;;;0.10;0.10;;;;;;;6.84;90.77;99086.94;5039357;28;20057;-65
2022/10/05 02:56:32;;;;;;;0.10;0.10;;;;;;;6.86;91.09;99092.13;5028036;28;20294;-64
2022/10/05 02:59:06;;;;;;;0.10;0.10;;;;;;;6.85;91.16;99088.56;5041479;28;20459;-65
2022/10/05 03:01:40;;;;;;;0.10;0.10;;;;;;;6.84;90.96;99088.84;5043001;28;20037;-65
2022/10/05 03:04:18;;;;;;;0.10;0.10;;;;;;;6.83;91.23;99088.03;5044333;28;20056;-63
2022/10/05 03:06:53;;;;;;;0.00;0.00;;;;;;;6.86;91.18;99095.63;5044109;28;20049;-66
2022/10/05 03:09:21;;;;;;;0.10;0.10;;;;;;;6.88;91.01;99095.38;5043441;28;20041;-66
2022/10/05 03:11:57;;;;;;;0.10;0.10;;;;;;;6.85;90.89;99093.19;5043474;28;20057;-65
2022/10/05 03:14:32;;;;;;;0.10;0.10;;;;;;;6.86;90.84;99092.91;5044246;28;20127;-64
2022/10/05 03:17:07;;;;;;;0.10;0.10;;;;;;;6.89;90.77;99094.28;5046010;28;20053;-64
2022/10/05 03:19:46;;;;;;;0.10;0.10;;;;;;;6.84;90.83;99097.81;5043295;28;20045;-65
2022/10/05 03:22:22;;;;;;;0.10;0.10;;;;;;;6.84;90.93;99097.81;5041814;28;20127;-64
2022/10/05 03:25:30;;;;;;;0.10;0.10;;;;;;;6.85;90.90;99094.00;5025837;28;20053;-64
2022/10/05 03:28:02;;;;;;;0.10;0.10;;;;;;;6.88;90.69;99100.81;5040946;28;20045;-64
2022/10/05 03:30:36;;;;;;;0.10;0.10;;;;;;;6.89;90.31;99100.56;5045681;28;20045;-64
2022/10/05 03:33:14;;;;;;;0.10;0.10;;;;;;;6.90;90.33;99106.78;5042444;28;20045;-64
2022/10/05 03:35:50;;;;;;;0.10;0.10;;;;;;;6.87;90.25;99101.91;5007311;28;20049;-64
2022/10/05 03:38:24;;;;;;;0.10;0.10;;;;;;;6.81;90.44;99103.78;5023404;28;20572;-64
2022/10/05 03:40:57;;;;;;;0.10;0.10;;;;;;;6.81;90.49;99109.22;5027153;28;20585;-64
2022/10/05 03:43:38;;;;;;;0.10;0.10;;;;;;;6.80;90.04;99108.41;5023247;28;20060;-65
2022/10/05 03:46:11;;;;;;;0.10;0.10;;;;;;;6.83;89.96;99104.31;5042759;28;20048;-65
2022/10/05 03:48:46;;;;;;;0.10;0.10;;;;;;;6.87;89.59;99116.31;5029938;28;20463;-66
2022/10/05 03:51:18;;;;;;;0.10;0.10;;;;;;;6.89;89.50;99119.59;5042638;28;20053;-66
2022/10/05 03:53:50;;;;;;;0.10;0.10;;;;;;;6.93;88.97;99111.69;5041053;28;20065;-65
2022/10/05 03:56:22;;;;;;;0.10;0.10;;;;;;;6.86;88.92;99117.38;5039917;28;20146;-66
2022/10/05 03:58:56;;;;;;;0.10;0.10;;;;;;;6.86;89.28;99120.09;5044004;28;20536;-66
2022/10/05 04:01:32;;;;;;;0.10;0.10;;;;;;;6.85;89.60;99107.59;5029414;28;20132;-64
2022/10/05 04:04:04;;;;;;;0.10;0.10;;;;;;;6.88;89.08;99111.69;5042403;28;20230;-66
2022/10/05 04:06:35;;;;;;;0.10;0.10;;;;;;;6.86;88.91;99113.84;5015224;28;20038;-64
2022/10/05 04:09:08;;;;;;;0.10;0.10;;;;;;;6.81;88.20;99118.19;5021936;28;20103;-65
2022/10/05 04:11:37;;;;;;;0.10;0.10;;;;;;;6.80;87.98;99115.72;5023562;28;20433;-62
2022/10/05 04:14:09;;;;;;;0.10;0.10;;;;;;;6.83;87.73;99114.41;5026968;28;20412;-65
2022/10/05 04:16:40;;;;;;;0.10;0.10;;;;;;;6.84;87.20;99116.03;5044711;28;20044;-65
2022/10/05 04:19:18;;;;;;;0.10;0.10;;;;;;;6.80;87.21;99115.72;5043861;28;20040;-66
2022/10/05 04:21:50;;;;;;;0.10;0.10;;;;;;;6.77;87.41;99124.44;5031557;28;20508;-65
2022/10/05 04:24:23;;;;;;;0.10;0.10;;;;;;;6.78;87.29;99124.13;5026780;28;20431;-65
2022/10/05 04:26:53;;;;;;;0.10;0.10;;;;;;;6.86;86.92;99124.72;5039862;28;20080;-65
2022/10/05 04:29:29;;;;;;;0.10;0.10;;;;;;;6.86;86.88;99132.88;5039325;28;20503;-65
2022/10/05 04:32:25;;;;;;;0.10;0.10;;;;;;;6.85;87.09;99125.81;5047281;28;20045;-65
2022/10/05 04:35:06;;;;;;;0.10;0.10;;;;;;;6.89;87.25;99138.59;5045166;28;20060;-65
2022/10/05 04:37:42;;;;;;;0.10;0.10;;;;;;;6.80;86.89;99105.69;5046667;28;20542;-65
2022/10/05 04:40:20;;;;;;;0.10;0.10;;;;;;;6.96;87.00;99135.63;5030192;28;20045;-65
2022/10/05 04:42:57;;;;;;;0.17;0.10;;;;;;;7.00;86.74;99134.00;5046653;28;20139;-65
2022/10/05 04:45:36;;;;;;;0.10;0.10;;;;;;;7.01;86.49;99138.38;5046211;28;20053;-65
2022/10/05 04:48:43;;;;;;;0.10;0.10;;;;;;;7.06;86.86;99129.41;5046235;28;20052;-65
2022/10/05 04:51:24;;;;;;;0.10;0.10;;;;;;;7.11;86.43;99137.56;5032991;28;20637;-65
2022/10/05 04:53:55;;;;;;;0.10;0.10;;;;;;;7.10;86.69;99141.38;5040311;28;20176;-65
2022/10/05 04:56:31;;;;;;;0.10;0.10;;;;;;;7.13;86.42;99131.88;5027136;28;20488;-65
2022/10/05 04:59:17;;;;;;;0.10;0.10;;;;;;;7.17;86.56;99135.69;5026857;28;20144;-65
2022/10/05 05:02:02;;;;;;;0.10;0.10;;;;;;;7.27;86.28;99145.75;5028276;28;20136;-65
2022/10/05 05:04:43;;;;;;;0.10;0.10;;;;;;;7.23;85.67;99146.31;5015158;28;20052;-64
2022/10/05 05:07:23;;;;;;;0.10;0.10;;;;;;;7.22;85.57;99144.69;5044378;28;20052;-65
2022/10/05 05:10:32;;;;;;;0.10;0.10;;;;;;;7.21;85.58;99140.31;5046777;28;20586;-64
2022/10/05 05:13:09;;;;;;;0.10;0.10;;;;;;;7.25;85.65;99137.88;5031050;28;20055;-65
2022/10/05 05:15:45;;;;;;;0.10;0.10;;;;;;;7.28;85.42;99144.69;5039724;28;20269;-64
2022/10/05 05:18:37;;;;;;;0.10;0.10;;;;;;;7.26;85.20;99144.97;5034953;28;20072;-64
2022/10/05 05:21:15;;;;;;;0.10;0.10;;;;;;;7.26;85.21;99141.41;5029368;28;20083;-65
2022/10/05 05:23:49;;;;;;;0.10;0.10;;;;;;;7.32;85.10;99143.03;5029214;28;20060;-65
2022/10/05 05:26:26;;;;;;;0.10;0.10;;;;;;;7.38;85.39;99144.72;5028820;28;20530;-65
2022/10/05 05:29:04;;;;;;;0.10;0.10;;;;;;;7.36;85.17;99131.38;5045152;28;20567;-65
2022/10/05 05:31:41;;;;;;;0.10;0.10;;;;;;;7.44;84.49;99140.09;5029291;28;20036;-65
2022/10/05 05:34:26;;;;;;;0.10;0.10;;;;;;;7.43;84.10;99138.47;5031857;28;20045;-65
2022/10/05 05:37:03;;;;;;;0.10;0.10;;;;;;;7.38;84.37;99145.50;5024782;28;20763;-66
2022/10/05 05:39:36;;;;;;;0.15;0.13;;;;;;;7.28;84.81;99120.19;5029450;28;20135;-66
2022/10/05 05:42:16;;;;;;;0.10;0.10;;;;;;;7.44;84.47;99134.66;5020775;28;20046;-65
2022/10/05 05:44:48;;;;;;;0.10;0.10;;;;;;;7.38;84.25;99145.50;5019869;28;20134;-65
2022/10/05 05:47:19;;;;;;;0.10;0.10;;;;;;;7.36;84.39;99147.69;5024524;28;20041;-64
2022/10/05 05:49:57;;;;;;;0.10;0.10;;;;;;;7.37;84.04;99153.97;5008687;28;20049;-65
2022/10/05 05:52:29;;;;;;;0.10;0.10;;;;;;;7.37;84.58;99151.22;5015243;28;20073;-65
2022/10/05 05:55:01;;;;;;;0.10;0.10;;;;;;;7.32;84.98;99145.75;5005210;28;20414;-64
2022/10/05 05:57:34;;;;;;;0.10;0.10;;;;;;;7.36;85.73;99155.84;5028899;28;20049;-65
2022/10/05 06:00:04;;;;;;;0.10;0.10;;;;;;;7.37;86.69;99160.19;4995053;28;20053;-64
2022/10/05 06:02:44;;;;;;;0.10;0.10;;;;;;;7.35;87.20;99156.94;5040383;28;20042;-66
2022/10/05 06:05:24;;;;;;;0.10;0.10;;;;;;;7.30;87.52;99159.66;5040463;28;20049;-66
2022/10/05 06:07:54;;;;;;;0.10;0.10;;;;;;;7.29;87.56;99159.91;5046732;28;20068;-65
2022/10/05 06:10:33;;;;;;;0.10;0.10;;;;;;;7.31;88.08;99152.28;5036141;28;20421;-64
2022/10/05 06:13:10;;;;;;;0.10;0.10;;;;;;;7.31;87.28;99157.72;5028600;28;20045;-64
2022/10/05 06:15:42;;;;;;;0.10;0.10;;;;;;;7.27;86.10;99156.66;5026186;28;20376;-65
2022/10/05 06:18:11;;;;;;;0.10;0.10;;;;;;;7.26;86.17;99155.00;5026067;28;20103;-66
2022/10/05 06:20:42;;;;;;;0.10;0.10;;;;;;;7.26;85.24;99165.88;5038251;28;20579;-65
2022/10/05 06:23:13;;;;;;;0.10;0.10;;;;;;;7.24;85.29;99171.59;5049219;28;20542;-65
2022/10/05 06:25:57;;;;;;;0.10;0.10;;;;;;;7.14;85.47;99145.19;5046012;28;20045;-65
2022/10/05 06:28:25;;;;;;;0.10;0.10;;;;;;;7.38;85.25;99167.25;5042757;28;20042;-65
2022/10/05 06:31:02;;;;;;;0.10;0.10;;;;;;;7.53;84.92;99173.81;5037859;28;20040;-68
2022/10/05 06:33:44;;;;;;;0.10;0.10;;;;;;;7.70;83.66;99172.75;5031279;28;20476;-65
2022/10/05 06:36:37;;;;;;;0.10;0.10;;;;;;;7.91;83.21;99179.84;5024669;28;20053;-66
2022/10/05 06:39:40;;;;;;;0.10;0.10;;;;;;;8.07;81.84;99177.94;5029185;28;20087;-65
2022/10/05 06:42:22;;;;;;;0.10;0.10;;;;;;;8.21;81.40;99189.09;5039607;28;20082;-66
2022/10/05 06:45:13;;;;;;;0.10;0.10;;;;;;;8.18;79.67;99186.09;5040615;28;20056;-65
2022/10/05 06:47:57;;;;;;;;;;;;;;;8.07;80.25;99188.03;5034836;28;20143;-66
2022/10/05 06:50:54;;;;;;;0.10;0.10;;;;;;;7.91;80.18;99185.28;5042110;28;19960;-65
2022/10/05 06:53:52;;;;;;;0.10;0.10;;;;;;;7.95;79.75;99196.44;5045427;28;20057;-64
2022/10/05 06:56:28;;;;;;;0.10;0.10;;;;;;;7.92;79.17;99203.25;5040797;28;20053;-65
2022/10/05 06:59:05;;;;;;;0.10;0.10;;;;;;;7.96;79.31;99198.09;5037757;28;20072;-65
2022/10/05 07:01:42;;;;;;;0.10;0.10;;;;;;;8.08;78.94;99200.53;5037140;28;20509;-65
2022/10/05 07:04:23;;;;;;;0.20;0.20;;;;;;;8.23;77.82;99214.16;5034060;28;20744;-65
2022/10/05 07:06:52;;;;;;;0.10;0.10;;;;;;;8.32;77.87;99216.31;5033521;28;20045;-65
2022/10/05 07:09:31;;;;;;;0.10;0.10;;;;;;;8.44;77.10;99214.13;5043019;28;20068;-64
2022/10/05 07:12:28;;;;;;;0.10;0.10;;;;;;;8.54;77.13;99217.97;5042482;28;20413;-65
2022/10/05 07:15:14;;;;;;;0.10;0.10;;;;;;;8.62;77.07;99220.09;5039574;28;20585;-65
2022/10/05 07:17:51;;;;;;;0.10;0.10;;;;;;;8.66;76.78;99226.63;5032060;28;20120;-66
2022/10/05 07:20:25;;;;;;;0.10;0.10;;;;;;;8.53;76.57;99214.41;5036542;28;20061;-65
2022/10/05 07:23:09;;;;;;;0.10;0.10;;;;;;;8.44;76.07;99226.94;5038014;28;20107;-64
2022/10/05 07:25:41;;;;;;;0.20;0.20;;;;;;;8.33;75.66;99226.09;5037813;28;20422;-66
2022/10/05 07:28:13;;;;;;;0.52;0.20;;;;;;;8.32;76.40;99236.19;5024763;28;20044;-64
2022/10/05 07:30:51;;;;;;;0.10;0.10;;;;;;;8.35;76.44;99234.81;5037993;28;20373;-65
2022/10/05 07:33:23;;;;;;;0.20;0.10;;;;;;;8.33;76.27;99228.81;5041797;28;20076;-65
2022/10/05 07:38:47;;;;;;;0.10;0.10;;;;;;;8.49;75.80;99233.16;5044454;28;20048;-64
2022/10/05 07:41:22;;;;;;;0.10;0.10;;;;;;;8.51;74.85;99246.56;5038668;28;20532;-65
2022/10/05 07:43:55;;;;;;;0.10;0.10;;;;;;;8.39;75.04;99246.81;5041659;28;20319;-65
2022/10/05 07:46:31;;;;;;;0.10;0.10;;;;;;;8.38;75.48;99247.91;5041387;28;20044;-65
2022/10/05 07:49:04;;;;;;;0.10;0.10;;;;;;;8.42;75.11;99253.63;5027086;28;20143;-65
2022/10/05 07:51:35;;;;;;;0.10;0.10;;;;;;;8.50;75.03;99258.56;5040557;28;20045;-65
2022/10/05 07:54:20;;;;;;;0.20;0.20;;;;;;;8.65;74.16;99260.44;5038839;28;20087;-65
2022/10/05 07:56:53;;;;;;;0.10;0.10;;;;;;;8.69;73.83;99255.25;5025421;28;20114;-65
2022/10/05 07:59:31;;;;;;;0.15;0.10;;;;;;;8.75;74.00;99257.69;5037934;28;20047;-65
2022/10/05 08:02:06;;;;;;;0.10;0.10;;;;;;;8.78;74.00;99256.34;5043786;28;20126;-65
2022/10/05 08:04:39;;;;;;;0.10;0.10;;;;;;;8.79;73.83;99260.69;5042063;28;20060;-65
2022/10/05 08:07:11;;;;;;;0.10;0.10;;;;;;;8.79;73.90;99266.13;5043469;28;20049;-65
2022/10/05 08:09:41;;;;;;;0.10;0.10;;;;;;;8.69;74.50;99261.53;5046588;28;20088;-64
2022/10/05 08:12:23;;;;;;;0.10;0.10;;;;;;;8.65;74.57;99274.88;5047109;28;20424;-64
2022/10/05 08:14:54;;;;;;;0.15;0.15;;;;;;;8.51;75.03;99269.19;5041645;28;20696;-64
2022/10/05 08:17:37;;;;;;;0.10;0.10;;;;;;;8.49;75.42;99270.50;5040192;28;20511;-65
2022/10/05 08:20:17;;;;;;;0.10;0.10;;;;;;;8.59;75.98;99270.53;5047156;28;20045;-65
2022/10/05 08:22:48;;;;;;;0.10;0.10;;;;;;;8.72;75.93;99273.78;5043617;28;20044;-65
2022/10/05 08:25:23;;;;;;;2.03;0.20;;;;;;;8.76;75.33;99278.41;5038235;28;20053;-65
2022/10/05 08:27:53;;;;;;;0.10;0.10;;;;;;;8.80;75.15;99281.41;5036476;28;20450;-65
2022/10/05 08:30:19;;;;;;;0.10;0.10;;;;;;;8.83;75.22;99288.22;5045919;28;20106;-65
2022/10/05 08:32:54;;;;;;;0.20;0.20;;;;;;;8.72;75.15;99280.06;5044076;28;20043;-64
2022/10/05 08:35:29;;;;;;;0.10;0.10;;;;;;;8.69;75.51;99287.97;5038877;28;20049;-65
2022/10/05 08:37:56;;;;;;;0.10;0.10;;;;;;;8.67;74.81;99281.97;5047072;28;20048;-65
2022/10/05 08:40:55;;;;;;;0.10;0.10;;;;;;;8.63;74.73;99285.25;5048402;28;20048;-65
2022/10/05 08:43:43;;;;;;;0.10;0.10;;;;;;;8.57;75.45;99286.31;5045017;28;20052;-64
2022/10/05 08:46:28;;;;;;;0.20;0.20;;;;;;;8.72;75.30;99290.13;5046015;28;20057;-64
2022/10/05 08:49:18;;;;;;;0.17;0.17;;;;;;;8.74;75.51;99298.84;5027269;28;20056;-64
2022/10/05 08:52:12;;;;;;;0.10;0.10;;;;;;;8.61;75.61;99292.06;5034595;28;20052;-65
2022/10/05 08:54:51;;;;;;;0.10;0.10;;;;;;;8.57;76.66;99294.50;5005966;28;20064;-65
2022/10/05 08:57:45;;;;;;;0.10;0.10;;;;;;;8.31;77.62;99296.38;5037588;28;20049;-64
2022/10/05 09:00:16;;;;;;;0.65;0.20;;;;;;;8.22;78.74;99291.50;5043599;28;20524;-64
2022/10/05 09:03:10;;;;;;;0.10;0.10;;;;;;;8.21;79.23;99302.66;5049203;28;20415;-64
2022/10/05 09:06:14;;;;;;;0.10;0.10;;;;;;;8.26;79.63;99299.13;5023924;28;20410;-65
2022/10/05 09:08:55;;;;;;;0.10;0.10;;;;;;;8.38;79.87;99302.41;5041465;28;20044;-64
2022/10/05 09:11:31;;;;;;;0.10;0.10;;;;;;;8.55;79.88;99307.59;5042490;28;20525;-65
2022/10/05 09:14:33;;;;;;;0.10;0.10;;;;;;;8.83;79.72;99307.31;5024907;28;20432;-65
2022/10/05 09:17:27;;;;;;;0.10;0.10;;;;;;;9.08;79.53;99317.34;5033157;28;20064;-66
2022/10/05 09:20:17;;;;;;;0.20;0.15;;;;;;;9.08;77.09;99306.44;5022436;28;20068;-65
2022/10/05 09:22:58;;;;;;;0.13;0.13;;;;;;;9.01;76.50;99317.63;5042664;28;20045;-65
2022/10/05 09:25:43;;;;;;;0.10;0.10;;;;;;;9.03;76.81;99326.34;5040481;28;20421;-65
2022/10/05 09:28:23;;;;;;;0.10;0.10;;;;;;;8.99;75.39;99321.72;5029092;28;20054;-66
2022/10/05 09:31:15;;;;;;;0.10;0.10;;;;;;;8.73;75.86;99321.75;5041566;28;20429;-65
2022/10/05 09:34:14;;;;;;;0.65;0.20;;;;;;;8.59;77.06;99332.38;5037519;28;20053;-65
2022/10/05 09:37:22;;;;;;;0.10;0.10;;;;;;;8.58;77.88;99331.56;5032816;28;20667;-66
2022/10/05 09:40:22;;;;;;;0.20;0.20;;;;;;;8.73;77.71;99332.66;5046396;28;20497;-65
2022/10/05 09:43:08;;;;;;;0.20;0.20;;;;;;;9.01;76.39;99333.16;5045882;28;20076;-65
2022/10/05 09:46:02;;;;;;;0.20;0.20;;;;;;;9.47;75.13;99327.56;5046829;28;20519;-64
2022/10/05 09:48:55;;;;;;;0.20;0.20;;;;;;;10.30;72.58;99329.84;5030898;28;20195;-65
2022/10/05 09:51:57;;;;;;;0.20;0.20;;;;;;;10.87;69.90;99331.34;5045321;28;20172;-65
2022/10/05 09:55:00;;;;;;;0.40;0.40;;;;;;;11.29;68.12;99329.78;5044772;28;20057;-65
2022/10/05 09:58:05;;;;;;;0.30;0.30;;;;;;;12.62;64.32;99336.47;4997432;28;20551;-66
2022/10/05 10:00:46;;;;;;;0.30;0.30;;;;;;;13.02;62.50;99341.53;5040559;28;21037;-67
2022/10/05 10:03:24;;;;;;;0.30;0.30;;;;;;;12.82;62.06;99345.47;5046115;28;20512;-65
2022/10/05 10:06:10;;;;;;;0.30;0.30;;;;;;;12.52;61.37;99347.63;5044559;28;20052;-65
2022/10/05 10:08:50;;;;;;;0.20;0.20;;;;;;;12.15;62.34;99349.25;5044422;28;20041;-65
2022/10/05 10:11:29;;;;;;;0.30;0.30;;;;;;;11.91;62.80;99350.13;5041368;28;20527;-65
2022/10/05 10:14:16;;;;;;;0.20;0.20;;;;;;;12.95;60.30;99351.28;5040204;28;20053;-65
2022/10/05 10:17:02;;;;;;;0.20;0.20;;;;;;;12.84;58.84;99350.66;5047438;28;20053;-65
2022/10/05 10:20:16;;;;;;;0.20;0.20;;;;;;;11.80;60.70;99357.66;5041323;28;20043;-64
2022/10/05 10:23:01;;;;;;;0.20;0.20;;;;;;;11.25;63.25;99350.63;5042883;28;20041;-65
2022/10/05 10:26:02;;;;;;;0.20;0.20;;;;;;;11.33;63.42;99357.38;5045966;28;20086;-65
2022/10/05 10:29:00;;;;;;;0.25;0.25;;;;;;;11.44;63.56;99358.09;5035526;28;20452;-64
2022/10/05 10:31:51;;;;;;;0.20;0.20;;;;;;;11.63;62.78;99360.88;5011441;28;20077;-65
2022/10/05 10:34:40;;;;;;;0.20;0.20;;;;;;;11.48;62.88;99353.69;5032817;28;20045;-64
2022/10/05 10:37:33;;;;;;;0.15;0.15;;;;;;;11.04;64.13;99364.53;5042115;28;20044;-64
2022/10/05 10:40:25;;;;;;;0.10;0.10;;;;;;;10.64;65.46;99364.59;5044253;28;20067;-65
2022/10/05 10:43:21;;;;;;;0.20;0.20;;;;;;;10.36;66.32;99374.34;5046322;28;20418;-65
2022/10/05 10:45:57;;;;;;;0.20;0.20;;;;;;;10.06;67.60;99376.97;5044571;28;20420;-65
2022/10/05 10:49:01;;;;;;;0.20;0.20;;;;;;;10.04;68.33;99376.44;5038165;28;20534;-65
2022/10/05 10:52:00;;;;;;;0.30;0.30;;;;;;;10.21;70.30;99378.78;5013399;28;20402;-64
2022/10/05 10:55:05;;;;;;;1.00;1.00;;;;;;;12.21;70.62;99380.97;5021595;28;20063;-66
2022/10/05 10:57:43;;;;;;;0.93;0.93;;;;;;;14.33;57.43;99381.78;5004734;28;20516;-65
2022/10/05 11:00:32;;;;;;;0.30;0.30;;;;;;;13.86;56.12;99381.97;5044067;28;20463;-65
2022/10/05 11:03:50;;;;;;;1.33;1.23;;;;;;;15.39;52.65;99385.25;5039328;28;20053;-66
2022/10/05 11:06:47;;;;;;;1.30;1.20;;;;;;;16.93;46.61;99380.94;5035121;28;20056;-65
2022/10/05 11:09:38;;;;;;;1.30;1.20;;;;;;;18.44;45.14;99382.69;5039867;28;20520;-66
2022/10/05 11:12:38;;;;;;;1.30;1.20;;;;;;;20.40;39.71;99381.69;5046039;28;20045;-66
2022/10/05 11:15:25;;;;;;;1.40;1.30;;;;;;;21.36;37.83;99377.53;5035871;28;20076;-65
2022/10/05 11:18:19;;;;;;;1.40;1.30;;;;;;;22.93;35.41;99396.53;5037078;28;20045;-65
2022/10/05 11:21:12;;;;;;;0.70;0.70;;;;;;;22.88;34.19;99392.09;5021337;28;20052;-65
2022/10/05 11:24:11;;;;;;;0.30;0.30;;;;;;;20.80;36.91;99393.94;5033549;28;20059;-66
2022/10/05 11:26:56;;;;;;;0.30;0.30;;;;;;;18.11;41.88;99413.84;5038585;28;20431;-66
2022/10/05 11:29:47;;;;;;;0.20;0.20;;;;;;;16.52;45.53;99411.47;5020842;28;20041;-65
2022/10/05 11:32:43;;;;;;;0.20;0.20;;;;;;;15.03;48.51;99412.59;5042153;28;20071;-65
2022/10/05 11:35:40;;;;;;;0.30;0.30;;;;;;;13.82;52.14;99424.94;5020561;28;20103;-65
2022/10/05 11:38:30;;;;;;;0.20;0.20;;;;;;;13.05;53.98;99422.47;5044108;28;20550;-65
2022/10/05 11:41:21;;;;;;;0.20;0.20;;;;;;;12.36;56.34;99423.00;5040338;28;20052;-65
2022/10/05 11:44:11;;;;;;;0.20;0.20;;;;;;;11.90;58.07;99420.53;5037219;28;20067;-65
2022/10/05 11:46:46;;;;;;;0.20;0.20;;;;;;;11.69;58.69;99427.34;5038524;28;20615;-64
2022/10/05 11:49:32;;;;;;;0.20;0.20;;;;;;;11.47;59.21;99425.94;5041738;28;20048;-64
2022/10/05 11:52:06;;;;;;;0.40;0.40;;;;;;;11.78;59.54;99420.94;5038778;28;20533;-66
2022/10/05 11:54:51;;;;;;;0.30;0.30;;;;;;;12.07;58.07;99430.22;5034893;28;20069;-65
2022/10/05 11:57:27;;;;;;;0.20;0.20;;;;;;;11.81;58.50;99414.06;5037346;28;20037;-65
2022/10/05 12:00:01;;;;;;;0.20;0.20;;;;;;;11.80;59.17;99430.78;5037634;28;20464;-65
2022/10/05 12:02:41;;;;;;;0.20;0.20;;;;;;;11.66;59.18;99436.97;5047019;28;20444;-65
2022/10/05 12:05:17;;;;;;;0.20;0.20;;;;;;;11.18;58.92;99451.41;5042724;28;20138;-65
2022/10/05 12:07:55;;;;;;;0.30;0.30;;;;;;;10.89;59.44;99442.06;5039441;28;20519;-65
2022/10/05 12:10:27;;;;;;;;;;;;;;;11.27;58.55;99462.56;5034068;28;20045;-66
2022/10/05 12:13:18;;;;;;;0.20;0.20;;;;;;;11.04;59.18;99464.91;5041825;28;19932;-65
2022/10/05 12:15:52;;;;;;;0.20;0.20;;;;;;;10.61;60.44;99460.88;5038473;28;20135;-65
2022/10/05 12:18:38;;;;;;;0.20;0.20;;;;;;;10.59;61.25;99468.50;5037434;28;20052;-65
2022/10/05 12:21:10;;;;;;;0.20;0.20;;;;;;;10.50;61.63;99460.09;5041413;28;20048;-65
2022/10/05 12:23:41;;;;;;;0.20;0.20;;;;;;;10.29;62.82;99461.28;5039249;28;20064;-65
2022/10/05 12:26:13;;;;;;;0.20;0.20;;;;;;;10.18;64.00;99466.00;5037997;28;20052;-65
2022/10/05 12:28:46;;;;;;;0.20;0.20;;;;;;;9.89;65.70;99472.91;5034886;28;20049;-65
2022/10/05 12:31:29;;;;;;;0.10;0.10;;;;;;;9.68;67.70;99477.63;5042459;28;20041;-65
2022/10/05 12:34:04;;;;;;;0.10;0.10;;;;;;;9.62;68.62;99478.72;5039660;28;20045;-63
2022/10/05 12:36:38;;;;;;;0.20;0.20;;;;;;;9.56;68.84;99477.91;5035231;28;20065;-65
2022/10/05 12:39:14;;;;;;;0.25;0.25;;;;;;;9.69;69.30;99475.72;5042253;28;20044;-65
2022/10/05 12:41:47;;;;;;;0.20;0.20;;;;;;;9.86;68.32;99487.13;5026072;28;20045;-65
2022/10/05 12:44:22;;;;;;;0.20;0.20;;;;;;;10.12;68.25;99481.59;5038106;28;20100;-65